Streator West, Illinois
Current Conditions -  °F | °C
As of 1:15 PM on Thursday 30 Oct 2014 (Local Time) from KPNT Reporting Station
Overcast Overcast  
Wind Chill: 48°   Ceiling: 8000
Heat Index: 50°   Visibility: 10mi
Dew Point: 38°   Wind: 6mph
Humidity: 65%   Direction: 230°SW
Pressure: 30.11"   Gusts: NA
Location:  41.1182°N, 88.8294°W
Report Text: KPNT 301815Z AUTO 23005KT 10SM OVC080 10/04 A3011 RMK AO2 T00990035
Loading
Personal Weather Stations






























Interactive Weather Map
Tropical Storm Tracking
New forecast layout! Learn more

10-Day Weather Forecast

Advertisements
Track Severe Weather on mobile